Terminal Aerodrome Forecast
Issued by NWS

Home | Current Version | Previous Version | Text Only | Print | Product List | Glossary Off
Versions: 1 2 3 4 5 6 7 8 9 10 11 12 13 14 15 16 17 18 19 20 21

000
FTUS43 KTOP 251735
TAFMHK
TAF
KMHK 251735Z 2518/2618 VRB04KT P6SM BKN025
     FM251900 16009KT P6SM BKN050
     FM252200 18010KT P6SM VCTS SCT030CB
     FM260200 17008KT P6SM SCT250
     FM260700 18006KT 4SM BR BKN025
     FM261500 17009KT P6SM BKN035=

USA.gov is the U.S. government's official web portal to all federal, state and local government web resources and services.